Terminal Aerodrome Forecast
Issued by NWS

Home | Current Version | Previous Version | Graphics & Text | Print | Product List | Glossary Off
Versions: 1 2 3 4 5 6 7 8 9 10 11 12 13 14

000
FTUS43 KDDC 230500
TAFHYS
TAF
KHYS 230539Z 2306/2406 15018KT P6SM SCT250
     FM231500 19027G37KT P6SM SCT250
     FM232200 18026G36KT P6SM VCTS SCT050CB
      TEMPO 2323/2402 4SM TSRA BKN050CB
     FM240300 36024G34KT P6SM VCTS BKN050CB=

USA.gov is the U.S. government's official web portal to all federal, state and local government web resources and services.